sensor_id;sensor_type;location;lat;lon;timestamp;P1;durP1;ratioP1;P2;durP2;ratioP2
21198;SDS011;10757;51.038;3.712;2023-02-01T00:01:38;28.98;;;6.68;;
21198;SDS011;10757;51.038;3.712;2023-02-01T00:04:04;27.65;;;7.00;;
21198;SDS011;10757;51.038;3.712;2023-02-01T00:06:29;27.65;;;5.88;;
21198;SDS011;10757;51.038;3.712;2023-02-01T00:08:55;20.88;;;6.63;;
21198;SDS011;10757;51.038;3.712;2023-02-01T00:11:21;23.02;;;6.13;;
21198;SDS011;10757;51.038;3.712;2023-02-01T00:13:48;21.40;;;5.60;;
21198;SDS011;10757;51.038;3.712;2023-02-01T00:16:18;29.20;;;5.97;;
21198;SDS011;10757;51.038;3.712;2023-02-01T00:18:47;22.75;;;5.75;;
21198;SDS011;10757;51.038;3.712;2023-02-01T00:21:15;26.45;;;5.80;;
21198;SDS011;10757;51.038;3.712;2023-02-01T00:23:42;28.38;;;5.53;;
21198;SDS011;10757;51.038;3.712;2023-02-01T00:26:16;28.25;;;5.82;;
21198;SDS011;10757;51.038;3.712;2023-02-01T00:28:44;26.08;;;5.65;;
21198;SDS011;10757;51.038;3.712;2023-02-01T00:31:11;24.98;;;5.10;;
21198;SDS011;10757;51.038;3.712;2023-02-01T00:33:37;27.08;;;5.50;;
21198;SDS011;10757;51.038;3.712;2023-02-01T00:36:04;17.35;;;4.57;;
21198;SDS011;10757;51.038;3.712;2023-02-01T00:38:32;22.55;;;5.50;;
21198;SDS011;10757;51.038;3.712;2023-02-01T00:41:01;30.63;;;6.68;;
21198;SDS011;10757;51.038;3.712;2023-02-01T00:43:32;26.52;;;5.43;;
21198;SDS011;10757;51.038;3.712;2023-02-01T00:45:58;26.08;;;5.03;;
21198;SDS011;10757;51.038;3.712;2023-02-01T00:48:24;21.45;;;5.88;;
21198;SDS011;10757;51.038;3.712;2023-02-01T00:50:50;28.58;;;5.40;;
21198;SDS011;10757;51.038;3.712;2023-02-01T00:53:16;31.13;;;5.22;;
21198;SDS011;10757;51.038;3.712;2023-02-01T00:55:44;29.20;;;4.93;;
21198;SDS011;10757;51.038;3.712;2023-02-01T00:58:10;24.20;;;5.55;;
21198;SDS011;10757;51.038;3.712;2023-02-01T01:00:36;26.20;;;5.45;;
21198;SDS011;10757;51.038;3.712;2023-02-01T01:03:02;20.98;;;4.40;;
21198;SDS011;10757;51.038;3.712;2023-02-01T01:05:43;23.25;;;4.88;;
21198;SDS011;10757;51.038;3.712;2023-02-01T01:08:09;25.25;;;6.03;;
21198;SDS011;10757;51.038;3.712;2023-02-01T01:10:35;23.00;;;4.18;;
21198;SDS011;10757;51.038;3.712;2023-02-01T01:13:00;26.15;;;4.70;;
21198;SDS011;10757;51.038;3.712;2023-02-01T01:15:26;29.13;;;5.15;;
21198;SDS011;10757;51.038;3.712;2023-02-01T01:17:54;30.65;;;5.30;;
21198;SDS011;10757;51.038;3.712;2023-02-01T01:20:19;20.05;;;5.03;;
21198;SDS011;10757;51.038;3.712;2023-02-01T01:22:47;26.20;;;5.40;;
21198;SDS011;10757;51.038;3.712;2023-02-01T01:25:13;23.95;;;5.30;;
21198;SDS011;10757;51.038;3.712;2023-02-01T01:27:39;34.13;;;5.55;;
21198;SDS011;10757;51.038;3.712;2023-02-01T01:30:05;25.75;;;5.10;;
21198;SDS011;10757;51.038;3.712;2023-02-01T01:32:32;28.27;;;5.18;;
21198;SDS011;10757;51.038;3.712;2023-02-01T01:34:58;24.60;;;4.80;;
21198;SDS011;10757;51.038;3.712;2023-02-01T01:37:24;23.95;;;5.35;;
21198;SDS011;10757;51.038;3.712;2023-02-01T01:39:49;27.10;;;5.20;;
21198;SDS011;10757;51.038;3.712;2023-02-01T01:42:15;25.80;;;4.65;;
21198;SDS011;10757;51.038;3.712;2023-02-01T01:45:00;23.33;;;4.82;;
21198;SDS011;10757;51.038;3.712;2023-02-01T01:47:44;22.40;;;4.72;;
21198;SDS011;10757;51.038;3.712;2023-02-01T01:50:14;22.38;;;4.80;;
21198;SDS011;10757;51.038;3.712;2023-02-01T01:52:43;21.30;;;5.45;;
21198;SDS011;10757;51.038;3.712;2023-02-01T01:55:11;16.63;;;3.92;;
21198;SDS011;10757;51.038;3.712;2023-02-01T01:57:39;24.65;;;4.65;;
21198;SDS011;10757;51.038;3.712;2023-02-01T02:02:37;26.60;;;5.03;;
21198;SDS011;10757;51.038;3.712;2023-02-01T02:05:04;23.80;;;4.63;;
21198;SDS011;10757;51.038;3.712;2023-02-01T02:07:31;23.27;;;5.10;;
21198;SDS011;10757;51.038;3.712;2023-02-01T02:10:00;23.88;;;5.00;;
21198;SDS011;10757;51.038;3.712;2023-02-01T02:12:30;22.63;;;4.82;;
21198;SDS011;10757;51.038;3.712;2023-02-01T02:14:57;24.17;;;5.75;;
21198;SDS011;10757;51.038;3.712;2023-02-01T02:17:31;20.55;;;5.43;;
21198;SDS011;10757;51.038;3.712;2023-02-01T02:23:12;26.65;;;5.30;;
21198;SDS011;10757;51.038;3.712;2023-02-01T02:36:38;24.83;;;5.75;;
21198;SDS011;10757;51.038;3.712;2023-02-01T02:42:15;24.77;;;5.75;;
21198;SDS011;10757;51.038;3.712;2023-02-01T02:45:17;24.42;;;5.20;;
21198;SDS011;10757;51.038;3.712;2023-02-01T02:51:01;22.73;;;5.43;;
21198;SDS011;10757;51.038;3.712;2023-02-01T02:54:07;26.55;;;4.70;;
21198;SDS011;10757;51.038;3.712;2023-02-01T02:57:04;26.17;;;4.53;;
21198;SDS011;10757;51.038;3.712;2023-02-01T02:59:52;17.63;;;4.38;;
21198;SDS011;10757;51.038;3.712;2023-02-01T03:02:38;29.23;;;4.93;;
21198;SDS011;10757;51.038;3.712;2023-02-01T03:05:22;23.50;;;4.22;;
21198;SDS011;10757;51.038;3.712;2023-02-01T03:07:53;33.58;;;5.93;;
21198;SDS011;10757;51.038;3.712;2023-02-01T03:10:26;37.15;;;5.50;;
21198;SDS011;10757;51.038;3.712;2023-02-01T03:18:35;34.00;;;5.55;;
21198;SDS011;10757;51.038;3.712;2023-02-01T03:21:04;31.23;;;5.50;;
21198;SDS011;10757;51.038;3.712;2023-02-01T03:23:34;21.33;;;4.38;;
21198;SDS011;10757;51.038;3.712;2023-02-01T03:26:03;26.27;;;4.95;;
21198;SDS011;10757;51.038;3.712;2023-02-01T03:28:32;30.90;;;5.20;;
21198;SDS011;10757;51.038;3.712;2023-02-01T03:31:00;33.83;;;4.65;;
21198;SDS011;10757;51.038;3.712;2023-02-01T03:33:29;22.98;;;4.63;;
21198;SDS011;10757;51.038;3.712;2023-02-01T03:36:10;22.10;;;4.13;;
21198;SDS011;10757;51.038;3.712;2023-02-01T03:46:54;30.10;;;4.88;;
21198;SDS011;10757;51.038;3.712;2023-02-01T03:49:36;27.40;;;5.50;;
21198;SDS011;10757;51.038;3.712;2023-02-01T03:52:13;30.88;;;5.25;;
21198;SDS011;10757;51.038;3.712;2023-02-01T03:54:42;26.60;;;5.18;;
21198;SDS011;10757;51.038;3.712;2023-02-01T03:57:11;22.83;;;4.75;;
21198;SDS011;10757;51.038;3.712;2023-02-01T03:59:39;23.60;;;4.78;;
21198;SDS011;10757;51.038;3.712;2023-02-01T04:02:06;38.40;;;6.55;;
21198;SDS011;10757;51.038;3.712;2023-02-01T04:04:32;22.58;;;4.70;;
21198;SDS011;10757;51.038;3.712;2023-02-01T04:06:59;36.97;;;5.90;;
21198;SDS011;10757;51.038;3.712;2023-02-01T04:09:25;23.00;;;5.00;;
21198;SDS011;10757;51.038;3.712;2023-02-01T04:11:51;21.67;;;5.30;;
21198;SDS011;10757;51.038;3.712;2023-02-01T04:14:17;31.02;;;5.25;;
21198;SDS011;10757;51.038;3.712;2023-02-01T04:16:42;30.20;;;6.13;;
21198;SDS011;10757;51.038;3.712;2023-02-01T04:19:08;27.23;;;5.18;;
21198;SDS011;10757;51.038;3.712;2023-02-01T04:21:34;33.47;;;5.13;;
21198;SDS011;10757;51.038;3.712;2023-02-01T04:23:59;33.95;;;6.05;;
21198;SDS011;10757;51.038;3.712;2023-02-01T04:26:25;26.10;;;4.47;;
21198;SDS011;10757;51.038;3.712;2023-02-01T04:28:51;26.17;;;5.70;;
21198;SDS011;10757;51.038;3.712;2023-02-01T04:31:18;26.02;;;6.25;;
21198;SDS011;10757;51.038;3.712;2023-02-01T04:33:51;22.52;;;4.57;;
21198;SDS011;10757;51.038;3.712;2023-02-01T04:36:18;24.02;;;5.18;;
21198;SDS011;10757;51.038;3.712;2023-02-01T04:38:46;22.15;;;4.82;;
21198;SDS011;10757;51.038;3.712;2023-02-01T04:41:13;31.90;;;5.63;;
21198;SDS011;10757;51.038;3.712;2023-02-01T04:43:38;22.52;;;4.82;;
21198;SDS011;10757;51.038;3.712;2023-02-01T04:46:04;24.30;;;4.32;;
21198;SDS011;10757;51.038;3.712;2023-02-01T04:48:30;35.60;;;5.47;;
21198;SDS011;10757;51.038;3.712;2023-02-01T04:50:56;29.08;;;4.85;;
21198;SDS011;10757;51.038;3.712;2023-02-01T04:53:22;32.35;;;4.90;;
21198;SDS011;10757;51.038;3.712;2023-02-01T04:55:48;29.13;;;5.55;;
21198;SDS011;10757;51.038;3.712;2023-02-01T04:58:15;24.20;;;5.13;;
21198;SDS011;10757;51.038;3.712;2023-02-01T05:00:40;27.05;;;5.13;;
21198;SDS011;10757;51.038;3.712;2023-02-01T05:03:06;30.85;;;5.72;;
21198;SDS011;10757;51.038;3.712;2023-02-01T05:05:32;30.40;;;4.72;;
21198;SDS011;10757;51.038;3.712;2023-02-01T05:07:57;34.53;;;5.45;;
21198;SDS011;10757;51.038;3.712;2023-02-01T05:10:24;22.73;;;4.90;;
21198;SDS011;10757;51.038;3.712;2023-02-01T05:12:49;27.08;;;5.15;;
21198;SDS011;10757;51.038;3.712;2023-02-01T05:15:41;25.08;;;4.78;;
21198;SDS011;10757;51.038;3.712;2023-02-01T05:18:08;25.23;;;5.93;;
21198;SDS011;10757;51.038;3.712;2023-02-01T05:20:33;28.27;;;5.55;;
21198;SDS011;10757;51.038;3.712;2023-02-01T05:22:59;25.83;;;5.78;;
21198;SDS011;10757;51.038;3.712;2023-02-01T05:25:25;39.10;;;7.97;;
21198;SDS011;10757;51.038;3.712;2023-02-01T05:27:50;23.02;;;4.88;;
21198;SDS011;10757;51.038;3.712;2023-02-01T05:30:16;27.73;;;4.75;;
21198;SDS011;10757;51.038;3.712;2023-02-01T05:32:42;29.38;;;5.22;;
21198;SDS011;10757;51.038;3.712;2023-02-01T05:35:08;21.20;;;5.00;;
21198;SDS011;10757;51.038;3.712;2023-02-01T05:37:33;27.75;;;4.97;;
21198;SDS011;10757;51.038;3.712;2023-02-01T05:39:59;27.75;;;4.65;;
21198;SDS011;10757;51.038;3.712;2023-02-01T05:42:25;26.17;;;5.20;;
21198;SDS011;10757;51.038;3.712;2023-02-01T05:44:50;25.85;;;4.68;;
21198;SDS011;10757;51.038;3.712;2023-02-01T05:47:16;24.00;;;4.60;;
21198;SDS011;10757;51.038;3.712;2023-02-01T05:49:42;24.33;;;5.78;;
21198;SDS011;10757;51.038;3.712;2023-02-01T05:52:07;26.95;;;4.85;;
21198;SDS011;10757;51.038;3.712;2023-02-01T05:54:33;30.90;;;5.53;;
21198;SDS011;10757;51.038;3.712;2023-02-01T05:56:59;28.65;;;4.68;;
21198;SDS011;10757;51.038;3.712;2023-02-01T05:59:25;21.02;;;4.45;;
21198;SDS011;10757;51.038;3.712;2023-02-01T06:01:50;25.70;;;5.32;;
21198;SDS011;10757;51.038;3.712;2023-02-01T06:04:16;22.10;;;5.00;;
21198;SDS011;10757;51.038;3.712;2023-02-01T06:06:42;29.20;;;6.18;;
21198;SDS011;10757;51.038;3.712;2023-02-01T06:09:07;37.10;;;6.18;;
21198;SDS011;10757;51.038;3.712;2023-02-01T06:11:33;31.77;;;5.53;;
21198;SDS011;10757;51.038;3.712;2023-02-01T06:13:59;32.25;;;5.13;;
21198;SDS011;10757;51.038;3.712;2023-02-01T06:16:26;32.92;;;5.65;;
21198;SDS011;10757;51.038;3.712;2023-02-01T06:18:56;30.02;;;5.68;;
21198;SDS011;10757;51.038;3.712;2023-02-01T06:21:23;26.48;;;4.85;;
21198;SDS011;10757;51.038;3.712;2023-02-01T06:23:50;37.80;;;6.32;;
21198;SDS011;10757;51.038;3.712;2023-02-01T06:26:16;32.40;;;5.22;;
21198;SDS011;10757;51.038;3.712;2023-02-01T06:28:43;27.00;;;5.45;;
21198;SDS011;10757;51.038;3.712;2023-02-01T06:31:09;29.52;;;4.78;;
21198;SDS011;10757;51.038;3.712;2023-02-01T06:33:35;22.83;;;5.80;;
21198;SDS011;10757;51.038;3.712;2023-02-01T06:36:01;22.67;;;5.25;;
21198;SDS011;10757;51.038;3.712;2023-02-01T06:38:29;26.55;;;5.07;;
21198;SDS011;10757;51.038;3.712;2023-02-01T06:40:55;32.72;;;7.90;;
21198;SDS011;10757;51.038;3.712;2023-02-01T06:43:22;31.00;;;5.45;;
21198;SDS011;10757;51.038;3.712;2023-02-01T06:45:50;30.83;;;5.82;;
21198;SDS011;10757;51.038;3.712;2023-02-01T06:48:16;26.70;;;4.60;;
21198;SDS011;10757;51.038;3.712;2023-02-01T06:50:42;32.55;;;5.25;;
21198;SDS011;10757;51.038;3.712;2023-02-01T06:53:08;31.58;;;6.47;;
21198;SDS011;10757;51.038;3.712;2023-02-01T06:55:34;19.58;;;4.53;;
21198;SDS011;10757;51.038;3.712;2023-02-01T06:58:00;20.85;;;4.88;;
21198;SDS011;10757;51.038;3.712;2023-02-01T07:00:29;32.55;;;5.15;;
21198;SDS011;10757;51.038;3.712;2023-02-01T07:02:55;26.80;;;5.60;;
21198;SDS011;10757;51.038;3.712;2023-02-01T07:05:23;30.23;;;6.05;;
21198;SDS011;10757;51.038;3.712;2023-02-01T07:07:49;24.55;;;6.60;;
21198;SDS011;10757;51.038;3.712;2023-02-01T07:10:15;28.70;;;5.07;;
21198;SDS011;10757;51.038;3.712;2023-02-01T07:12:41;25.92;;;5.53;;
21198;SDS011;10757;51.038;3.712;2023-02-01T07:15:07;34.47;;;7.00;;
21198;SDS011;10757;51.038;3.712;2023-02-01T07:17:33;25.52;;;5.07;;
21198;SDS011;10757;51.038;3.712;2023-02-01T07:19:58;36.25;;;5.75;;
21198;SDS011;10757;51.038;3.712;2023-02-01T07:22:26;22.40;;;5.13;;
21198;SDS011;10757;51.038;3.712;2023-02-01T07:24:54;23.60;;;5.68;;
21198;SDS011;10757;51.038;3.712;2023-02-01T07:27:20;27.10;;;5.57;;
21198;SDS011;10757;51.038;3.712;2023-02-01T07:29:46;33.33;;;6.57;;
21198;SDS011;10757;51.038;3.712;2023-02-01T07:32:11;27.20;;;5.38;;
21198;SDS011;10757;51.038;3.712;2023-02-01T07:34:37;23.98;;;5.18;;
21198;SDS011;10757;51.038;3.712;2023-02-01T07:37:03;25.50;;;5.35;;
21198;SDS011;10757;51.038;3.712;2023-02-01T07:39:31;35.30;;;5.80;;
21198;SDS011;10757;51.038;3.712;2023-02-01T07:41:57;29.13;;;5.43;;
21198;SDS011;10757;51.038;3.712;2023-02-01T07:44:23;21.05;;;5.15;;
21198;SDS011;10757;51.038;3.712;2023-02-01T07:46:49;31.17;;;5.15;;
21198;SDS011;10757;51.038;3.712;2023-02-01T07:49:15;29.85;;;6.47;;
21198;SDS011;10757;51.038;3.712;2023-02-01T07:51:42;34.97;;;5.57;;
21198;SDS011;10757;51.038;3.712;2023-02-01T07:54:08;25.10;;;5.85;;
21198;SDS011;10757;51.038;3.712;2023-02-01T07:56:34;27.27;;;5.45;;
21198;SDS011;10757;51.038;3.712;2023-02-01T07:58:59;28.95;;;5.78;;
21198;SDS011;10757;51.038;3.712;2023-02-01T08:01:26;28.45;;;5.32;;
21198;SDS011;10757;51.038;3.712;2023-02-01T08:03:54;28.45;;;6.07;;
21198;SDS011;10757;51.038;3.712;2023-02-01T08:06:25;26.50;;;5.55;;
21198;SDS011;10757;51.038;3.712;2023-02-01T08:08:51;25.95;;;5.93;;
21198;SDS011;10757;51.038;3.712;2023-02-01T08:11:18;36.63;;;5.97;;
21198;SDS011;10757;51.038;3.712;2023-02-01T08:13:44;25.48;;;4.85;;
21198;SDS011;10757;51.038;3.712;2023-02-01T08:16:11;38.25;;;5.85;;
21198;SDS011;10757;51.038;3.712;2023-02-01T08:18:37;24.52;;;5.32;;
21198;SDS011;10757;51.038;3.712;2023-02-01T08:21:04;27.95;;;4.63;;
21198;SDS011;10757;51.038;3.712;2023-02-01T08:23:35;23.95;;;6.68;;
21198;SDS011;10757;51.038;3.712;2023-02-01T08:31:07;28.85;;;5.13;;
21198;SDS011;10757;51.038;3.712;2023-02-01T08:33:34;33.03;;;5.25;;
21198;SDS011;10757;51.038;3.712;2023-02-01T08:36:03;37.60;;;5.95;;
21198;SDS011;10757;51.038;3.712;2023-02-01T08:38:29;26.67;;;4.53;;
21198;SDS011;10757;51.038;3.712;2023-02-01T08:40:55;29.02;;;5.57;;
21198;SDS011;10757;51.038;3.712;2023-02-01T08:43:21;25.95;;;4.78;;
21198;SDS011;10757;51.038;3.712;2023-02-01T08:45:47;35.00;;;5.60;;
21198;SDS011;10757;51.038;3.712;2023-02-01T08:48:13;29.73;;;5.25;;
21198;SDS011;10757;51.038;3.712;2023-02-01T08:50:39;30.55;;;5.28;;
21198;SDS011;10757;51.038;3.712;2023-02-01T08:53:05;25.45;;;4.93;;
21198;SDS011;10757;51.038;3.712;2023-02-01T08:55:30;27.65;;;5.20;;
21198;SDS011;10757;51.038;3.712;2023-02-01T08:57:56;28.58;;;5.43;;
21198;SDS011;10757;51.038;3.712;2023-02-01T09:00:22;33.33;;;5.43;;
21198;SDS011;10757;51.038;3.712;2023-02-01T09:02:48;18.35;;;4.82;;
21198;SDS011;10757;51.038;3.712;2023-02-01T09:05:13;32.47;;;5.13;;
21198;SDS011;10757;51.038;3.712;2023-02-01T09:07:41;21.73;;;4.32;;
21198;SDS011;10757;51.038;3.712;2023-02-01T09:10:07;24.42;;;4.93;;
21198;SDS011;10757;51.038;3.712;2023-02-01T09:12:34;26.27;;;4.78;;
21198;SDS011;10757;51.038;3.712;2023-02-01T09:15:00;25.15;;;4.55;;
21198;SDS011;10757;51.038;3.712;2023-02-01T09:17:26;28.88;;;5.25;;
21198;SDS011;10757;51.038;3.712;2023-02-01T09:19:53;28.05;;;5.40;;
21198;SDS011;10757;51.038;3.712;2023-02-01T09:22:19;34.10;;;4.80;;
21198;SDS011;10757;51.038;3.712;2023-02-01T09:24:45;18.88;;;4.80;;
21198;SDS011;10757;51.038;3.712;2023-02-01T09:27:11;28.60;;;4.93;;
21198;SDS011;10757;51.038;3.712;2023-02-01T09:29:37;26.80;;;5.22;;
21198;SDS011;10757;51.038;3.712;2023-02-01T09:32:03;27.50;;;4.90;;
21198;SDS011;10757;51.038;3.712;2023-02-01T09:34:29;23.70;;;4.43;;
21198;SDS011;10757;51.038;3.712;2023-02-01T09:36:55;28.65;;;5.28;;
21198;SDS011;10757;51.038;3.712;2023-02-01T09:39:21;24.52;;;4.57;;
21198;SDS011;10757;51.038;3.712;2023-02-01T09:42:06;25.83;;;5.28;;
21198;SDS011;10757;51.038;3.712;2023-02-01T09:47:48;26.67;;;4.78;;
21198;SDS011;10757;51.038;3.712;2023-02-01T09:50:24;27.17;;;4.85;;
21198;SDS011;10757;51.038;3.712;2023-02-01T09:53:19;24.58;;;5.22;;
21198;SDS011;10757;51.038;3.712;2023-02-01T09:55:51;28.10;;;5.13;;
21198;SDS011;10757;51.038;3.712;2023-02-01T09:58:31;23.45;;;4.70;;
21198;SDS011;10757;51.038;3.712;2023-02-01T10:01:02;32.65;;;5.13;;
21198;SDS011;10757;51.038;3.712;2023-02-01T10:03:30;28.65;;;4.78;;
21198;SDS011;10757;51.038;3.712;2023-02-01T10:06:20;26.63;;;4.65;;
21198;SDS011;10757;51.038;3.712;2023-02-01T10:25:44;26.63;;;4.57;;
21198;SDS011;10757;51.038;3.712;2023-02-01T10:28:24;25.17;;;4.45;;
21198;SDS011;10757;51.038;3.712;2023-02-01T10:30:52;30.00;;;4.50;;
21198;SDS011;10757;51.038;3.712;2023-02-01T10:35:52;27.38;;;4.50;;
21198;SDS011;10757;51.038;3.712;2023-02-01T10:38:28;28.52;;;5.00;;
21198;SDS011;10757;51.038;3.712;2023-02-01T10:40:57;27.30;;;4.88;;
21198;SDS011;10757;51.038;3.712;2023-02-01T10:46:16;20.55;;;3.97;;
21198;SDS011;10757;51.038;3.712;2023-02-01T10:48:42;21.65;;;3.63;;
21198;SDS011;10757;51.038;3.712;2023-02-01T10:51:24;16.88;;;4.15;;
21198;SDS011;10757;51.038;3.712;2023-02-01T10:54:16;24.35;;;4.15;;
21198;SDS011;10757;51.038;3.712;2023-02-01T10:56:46;14.40;;;3.22;;
21198;SDS011;10757;51.038;3.712;2023-02-01T10:59:21;25.55;;;4.03;;
21198;SDS011;10757;51.038;3.712;2023-02-01T11:02:24;15.95;;;3.05;;
21198;SDS011;10757;51.038;3.712;2023-02-01T11:05:07;19.83;;;3.67;;
21198;SDS011;10757;51.038;3.712;2023-02-01T11:07:40;22.00;;;4.38;;
21198;SDS011;10757;51.038;3.712;2023-02-01T11:10:49;20.48;;;4.13;;
21198;SDS011;10757;51.038;3.712;2023-02-01T11:13:32;14.05;;;2.85;;
21198;SDS011;10757;51.038;3.712;2023-02-01T11:16:03;20.73;;;3.67;;
21198;SDS011;10757;51.038;3.712;2023-02-01T11:18:31;19.70;;;3.88;;
21198;SDS011;10757;51.038;3.712;2023-02-01T11:21:09;18.80;;;3.35;;
21198;SDS011;10757;51.038;3.712;2023-02-01T11:23:43;16.75;;;3.45;;
21198;SDS011;10757;51.038;3.712;2023-02-01T11:26:25;15.10;;;3.88;;
21198;SDS011;10757;51.038;3.712;2023-02-01T11:28:59;27.67;;;3.63;;
21198;SDS011;10757;51.038;3.712;2023-02-01T11:31:35;21.80;;;4.70;;
21198;SDS011;10757;51.038;3.712;2023-02-01T11:34:21;23.70;;;3.65;;
21198;SDS011;10757;51.038;3.712;2023-02-01T11:37:02;21.30;;;3.85;;
21198;SDS011;10757;51.038;3.712;2023-02-01T11:39:33;19.10;;;4.43;;
21198;SDS011;10757;51.038;3.712;2023-02-01T11:42:13;22.25;;;4.25;;
21198;SDS011;10757;51.038;3.712;2023-02-01T11:44:49;23.92;;;4.30;;
21198;SDS011;10757;51.038;3.712;2023-02-01T11:49:56;25.30;;;5.00;;
21198;SDS011;10757;51.038;3.712;2023-02-01T12:10:38;24.50;;;4.00;;
21198;SDS011;10757;51.038;3.712;2023-02-01T12:19:03;19.23;;;3.72;;
21198;SDS011;10757;51.038;3.712;2023-02-01T12:21:49;17.75;;;3.72;;
21198;SDS011;10757;51.038;3.712;2023-02-01T12:35:23;17.27;;;3.15;;
21198;SDS011;10757;51.038;3.712;2023-02-01T12:38:18;19.65;;;3.05;;
21198;SDS011;10757;51.038;3.712;2023-02-01T12:44:02;14.10;;;2.92;;
21198;SDS011;10757;51.038;3.712;2023-02-01T12:46:46;21.10;;;3.85;;
21198;SDS011;10757;51.038;3.712;2023-02-01T12:49:17;19.55;;;3.35;;
21198;SDS011;10757;51.038;3.712;2023-02-01T12:52:02;20.35;;;3.22;;
21198;SDS011;10757;51.038;3.712;2023-02-01T12:54:54;12.52;;;3.22;;
21198;SDS011;10757;51.038;3.712;2023-02-01T13:00:27;11.57;;;2.70;;
21198;SDS011;10757;51.038;3.712;2023-02-01T13:08:25;15.52;;;2.85;;
21198;SDS011;10757;51.038;3.712;2023-02-01T13:11:05;23.63;;;4.22;;
21198;SDS011;10757;51.038;3.712;2023-02-01T13:16:42;10.18;;;2.58;;
21198;SDS011;10757;51.038;3.712;2023-02-01T13:19:23;14.05;;;2.72;;
21198;SDS011;10757;51.038;3.712;2023-02-01T13:22:04;15.05;;;3.03;;
21198;SDS011;10757;51.038;3.712;2023-02-01T13:24:57;14.90;;;2.75;;
21198;SDS011;10757;51.038;3.712;2023-02-01T13:27:28;18.83;;;3.30;;
21198;SDS011;10757;51.038;3.712;2023-02-01T13:41:07;18.52;;;3.45;;
21198;SDS011;10757;51.038;3.712;2023-02-01T13:43:48;12.23;;;2.65;;
21198;SDS011;10757;51.038;3.712;2023-02-01T13:46:17;17.60;;;3.17;;
21198;SDS011;10757;51.038;3.712;2023-02-01T13:48:49;14.25;;;3.00;;
21198;SDS011;10757;51.038;3.712;2023-02-01T13:51:28;15.27;;;2.80;;
21198;SDS011;10757;51.038;3.712;2023-02-01T13:53:57;13.20;;;3.13;;
21198;SDS011;10757;51.038;3.712;2023-02-01T13:56:23;17.25;;;3.20;;
21198;SDS011;10757;51.038;3.712;2023-02-01T13:58:50;16.83;;;3.38;;
21198;SDS011;10757;51.038;3.712;2023-02-01T14:16:42;14.90;;;3.10;;
21198;SDS011;10757;51.038;3.712;2023-02-01T14:19:20;16.02;;;3.50;;
21198;SDS011;10757;51.038;3.712;2023-02-01T14:26:50;19.27;;;4.18;;
21198;SDS011;10757;51.038;3.712;2023-02-01T14:31:53;18.80;;;3.92;;
21198;SDS011;10757;51.038;3.712;2023-02-01T14:34:34;20.58;;;3.10;;
21198;SDS011;10757;51.038;3.712;2023-02-01T14:37:31;19.30;;;3.65;;
21198;SDS011;10757;51.038;3.712;2023-02-01T14:55:40;19.30;;;4.10;;
21198;SDS011;10757;51.038;3.712;2023-02-01T14:58:31;20.67;;;4.30;;
21198;SDS011;10757;51.038;3.712;2023-02-01T15:01:22;20.67;;;4.43;;
21198;SDS011;10757;51.038;3.712;2023-02-01T15:04:06;20.45;;;4.13;;
21198;SDS011;10757;51.038;3.712;2023-02-01T15:06:42;19.05;;;3.78;;
21198;SDS011;10757;51.038;3.712;2023-02-01T15:12:04;23.00;;;4.18;;
21198;SDS011;10757;51.038;3.712;2023-02-01T15:17:35;24.58;;;4.43;;
21198;SDS011;10757;51.038;3.712;2023-02-01T15:20:03;23.95;;;3.83;;
21198;SDS011;10757;51.038;3.712;2023-02-01T15:22:31;25.33;;;4.40;;
21198;SDS011;10757;51.038;3.712;2023-02-01T15:24:59;28.85;;;4.57;;
21198;SDS011;10757;51.038;3.712;2023-02-01T15:27:26;20.60;;;4.18;;
21198;SDS011;10757;51.038;3.712;2023-02-01T15:29:53;24.92;;;4.30;;
21198;SDS011;10757;51.038;3.712;2023-02-01T15:43:26;23.90;;;3.70;;
21198;SDS011;10757;51.038;3.712;2023-02-01T15:45:58;23.45;;;4.22;;
21198;SDS011;10757;51.038;3.712;2023-02-01T15:48:25;19.15;;;3.70;;
21198;SDS011;10757;51.038;3.712;2023-02-01T15:50:57;23.02;;;3.65;;
21198;SDS011;10757;51.038;3.712;2023-02-01T15:55:57;23.65;;;4.55;;
21198;SDS011;10757;51.038;3.712;2023-02-01T15:58:28;23.00;;;3.85;;
21198;SDS011;10757;51.038;3.712;2023-02-01T16:00:58;25.55;;;4.43;;
21198;SDS011;10757;51.038;3.712;2023-02-01T16:05:56;24.35;;;4.45;;
21198;SDS011;10757;51.038;3.712;2023-02-01T16:08:25;17.55;;;4.85;;
21198;SDS011;10757;51.038;3.712;2023-02-01T16:11:13;21.38;;;4.20;;
21198;SDS011;10757;51.038;3.712;2023-02-01T16:13:48;26.80;;;4.55;;
21198;SDS011;10757;51.038;3.712;2023-02-01T16:16:13;21.13;;;4.18;;
21198;SDS011;10757;51.038;3.712;2023-02-01T16:18:40;22.73;;;4.15;;
21198;SDS011;10757;51.038;3.712;2023-02-01T16:21:07;22.55;;;4.72;;
21198;SDS011;10757;51.038;3.712;2023-02-01T16:23:34;23.35;;;4.15;;
21198;SDS011;10757;51.038;3.712;2023-02-01T16:26:00;20.42;;;4.30;;
21198;SDS011;10757;51.038;3.712;2023-02-01T16:28:27;18.95;;;4.47;;
21198;SDS011;10757;51.038;3.712;2023-02-01T16:30:53;24.48;;;5.30;;
21198;SDS011;10757;51.038;3.712;2023-02-01T16:33:19;25.88;;;5.13;;
21198;SDS011;10757;51.038;3.712;2023-02-01T16:35:48;30.25;;;5.60;;
21198;SDS011;10757;51.038;3.712;2023-02-01T16:38:16;28.35;;;5.35;;
21198;SDS011;10757;51.038;3.712;2023-02-01T16:40:45;18.45;;;4.78;;
21198;SDS011;10757;51.038;3.712;2023-02-01T16:43:15;25.27;;;5.10;;
21198;SDS011;10757;51.038;3.712;2023-02-01T16:45:46;28.50;;;4.95;;
21198;SDS011;10757;51.038;3.712;2023-02-01T16:48:35;29.95;;;5.70;;
21198;SDS011;10757;51.038;3.712;2023-02-01T16:51:01;26.17;;;5.30;;
21198;SDS011;10757;51.038;3.712;2023-02-01T16:53:31;32.50;;;6.25;;
21198;SDS011;10757;51.038;3.712;2023-02-01T16:55:57;28.95;;;5.30;;
21198;SDS011;10757;51.038;3.712;2023-02-01T16:58:24;29.30;;;5.03;;
21198;SDS011;10757;51.038;3.712;2023-02-01T17:00:51;34.17;;;5.88;;
21198;SDS011;10757;51.038;3.712;2023-02-01T17:03:17;28.23;;;5.68;;
21198;SDS011;10757;51.038;3.712;2023-02-01T17:05:51;38.83;;;5.50;;
21198;SDS011;10757;51.038;3.712;2023-02-01T17:08:22;23.35;;;4.78;;
21198;SDS011;10757;51.038;3.712;2023-02-01T17:10:56;25.48;;;5.32;;
21198;SDS011;10757;51.038;3.712;2023-02-01T17:13:22;24.20;;;4.70;;
21198;SDS011;10757;51.038;3.712;2023-02-01T17:15:58;33.83;;;5.90;;
21198;SDS011;10757;51.038;3.712;2023-02-01T17:18:27;27.52;;;4.85;;
21198;SDS011;10757;51.038;3.712;2023-02-01T17:20:58;26.38;;;5.22;;
21198;SDS011;10757;51.038;3.712;2023-02-01T17:23:33;21.58;;;5.05;;
21198;SDS011;10757;51.038;3.712;2023-02-01T17:25:59;26.20;;;5.28;;
21198;SDS011;10757;51.038;3.712;2023-02-01T17:28:27;27.75;;;5.53;;
21198;SDS011;10757;51.038;3.712;2023-02-01T17:30:53;29.60;;;6.00;;
21198;SDS011;10757;51.038;3.712;2023-02-01T17:33:27;27.67;;;4.95;;
21198;SDS011;10757;51.038;3.712;2023-02-01T17:35:58;28.38;;;5.32;;
21198;SDS011;10757;51.038;3.712;2023-02-01T17:38:24;30.00;;;6.45;;
21198;SDS011;10757;51.038;3.712;2023-02-01T17:40:50;30.77;;;6.03;;
21198;SDS011;10757;51.038;3.712;2023-02-01T17:43:23;29.83;;;6.28;;
21198;SDS011;10757;51.038;3.712;2023-02-01T17:48:36;25.38;;;5.20;;
21198;SDS011;10757;51.038;3.712;2023-02-01T17:51:03;26.00;;;6.30;;
21198;SDS011;10757;51.038;3.712;2023-02-01T17:53:30;31.48;;;6.05;;
21198;SDS011;10757;51.038;3.712;2023-02-01T17:55:58;31.92;;;5.93;;
21198;SDS011;10757;51.038;3.712;2023-02-01T17:58:27;25.55;;;5.47;;
21198;SDS011;10757;51.038;3.712;2023-02-01T18:01:00;30.05;;;5.85;;
21198;SDS011;10757;51.038;3.712;2023-02-01T18:03:28;30.35;;;6.85;;
21198;SDS011;10757;51.038;3.712;2023-02-01T18:06:01;24.35;;;6.22;;